Time;durP1;ratioP1;P1;durP2;ratioP2;P2;SDS_P1;SDS_P2;PMS_P1;PMS_P2;Temp;Humidity;BMP_temperature;BMP_pressure;BME280_temperature;BME280_humidity;BME280_pressure;Samples;Min_cycle;Max_cycle;Signal;HPM_P1;HPM_P2
2023/10/19 00:00:50;;;;;;;2.15;1.52;;;;;;;;;;4978274;28;20027;-31
2023/10/19 00:03:17;;;;;;;1.65;1.20;;;;;;;;;;4978417;28;20031;-31
2023/10/19 00:05:47;;;;;;;1.08;0.98;;;;;;;;;;4978021;28;20490;-30
2023/10/19 00:10:43;;;;;;;4.45;1.00;;;;;;;;;;4978602;28;20062;-30
2023/10/19 00:13:11;;;;;;;2.50;1.23;;;;;;;;;;4978599;28;20114;-32
2023/10/19 00:15:47;;;;;;;1.45;0.85;;;;;;;;;;4978280;28;20049;-31
2023/10/19 00:23:24;;;;;;;1.50;1.08;;;;;;;;;;4977866;28;20089;-31
2023/10/19 00:25:53;;;;;;;1.00;0.85;;;;;;;;;;4978400;28;20105;-32
2023/10/19 00:28:19;;;;;;;4.50;2.17;;;;;;;;;;4978066;28;20067;-32
2023/10/19 00:30:48;;;;;;;2.13;1.38;;;;;;;;;;4978762;28;20031;-30
2023/10/19 00:33:21;;;;;;;6.47;1.27;;;;;;;;;;4977763;28;20159;-31
2023/10/19 00:36:38;;;;;;;1.65;1.48;;;;;;;;;;4977638;28;20058;-29
2023/10/19 00:43:43;;;;;;;4.90;1.17;;;;;;;;;;4977477;28;20390;-31
2023/10/19 00:46:32;;;;;;;1.42;1.33;;;;;;;;;;4977257;28;20110;-30
2023/10/19 00:48:58;;;;;;;1.45;1.20;;;;;;;;;;4976520;28;20094;-31
2023/10/19 00:54:13;;;;;;;3.92;1.15;;;;;;;;;;4977492;28;20034;-30
2023/10/19 00:56:45;;;;;;;2.35;1.30;;;;;;;;;;4977601;28;20050;-30
2023/10/19 00:59:15;;;;;;;1.80;1.58;;;;;;;;;;4977225;28;20027;-31
2023/10/19 01:01:47;;;;;;;1.25;1.10;;;;;;;;;;4977378;28;20054;-31
2023/10/19 01:04:15;;;;;;;1.45;0.95;;;;;;;;;;4976837;28;20125;-31
2023/10/19 01:06:58;;;;;;;2.67;2.30;;;;;;;;;;4977654;28;20416;-33
2023/10/19 01:09:27;;;;;;;2.38;1.15;;;;;;;;;;4977073;28;20457;-30
2023/10/19 01:11:53;;;;;;;1.77;1.10;;;;;;;;;;4976859;28;20054;-31
2023/10/19 01:14:27;;;;;;;1.13;0.90;;;;;;;;;;4976895;28;20038;-33
2023/10/19 01:16:57;;;;;;;2.72;1.17;;;;;;;;;;4976917;28;20023;-31
2023/10/19 01:19:27;;;;;;;2.83;1.10;;;;;;;;;;4976820;28;20097;-32
2023/10/19 01:21:59;;;;;;;2.75;1.10;;;;;;;;;;4976939;28;20023;-31
2023/10/19 01:24:41;;;;;;;1.92;1.15;;;;;;;;;;4976763;28;20027;-31
2023/10/19 01:27:11;;;;;;;1.73;1.02;;;;;;;;;;4977008;28;20031;-32
2023/10/19 01:29:38;;;;;;;2.97;1.52;;;;;;;;;;4976870;28;20117;-31
2023/10/19 01:32:08;;;;;;;1.45;1.13;;;;;;;;;;4976560;28;20041;-30
2023/10/19 01:34:35;;;;;;;1.15;0.85;;;;;;;;;;4976615;28;20023;-32
2023/10/19 01:37:05;;;;;;;0.85;0.82;;;;;;;;;;4977342;28;20452;-32
2023/10/19 01:39:32;;;;;;;0.95;0.93;;;;;;;;;;4976433;28;20019;-32
2023/10/19 01:41:58;;;;;;;2.08;1.27;;;;;;;;;;4976391;28;20030;-32
2023/10/19 01:44:25;;;;;;;1.00;0.90;;;;;;;;;;4976469;28;20019;-32
2023/10/19 01:46:51;;;;;;;1.20;0.80;;;;;;;;;;4976307;28;20478;-31
2023/10/19 01:49:26;;;;;;;2.50;1.60;;;;;;;;;;4976382;28;20026;-34
2023/10/19 01:51:53;;;;;;;1.85;0.90;;;;;;;;;;4976793;28;20042;-32
2023/10/19 01:54:23;;;;;;;2.33;1.13;;;;;;;;;;4976542;28;20022;-33
2023/10/19 01:56:51;;;;;;;1.02;0.93;;;;;;;;;;4976151;28;20105;-33
2023/10/19 01:59:17;;;;;;;3.70;1.63;;;;;;;;;;4976063;28;20030;-33
2023/10/19 02:01:45;;;;;;;1.67;1.15;;;;;;;;;;4976292;28;20097;-33
2023/10/19 02:04:13;;;;;;;1.13;0.93;;;;;;;;;;4976022;28;20047;-32
2023/10/19 02:06:46;;;;;;;3.20;1.65;;;;;;;;;;4976348;28;20406;-33
2023/10/19 02:09:23;;;;;;;1.08;0.98;;;;;;;;;;4975993;28;20027;-31
2023/10/19 02:11:53;;;;;;;1.40;1.23;;;;;;;;;;4976231;28;20336;-31
2023/10/19 02:14:19;;;;;;;1.30;0.80;;;;;;;;;;4975921;28;20023;-30
2023/10/19 02:16:52;;;;;;;0.98;0.93;;;;;;;;;;4976163;28;20023;-31
2023/10/19 02:19:22;;;;;;;1.17;0.93;;;;;;;;;;4975937;28;20034;-30
2023/10/19 02:21:49;;;;;;;2.25;1.10;;;;;;;;;;4975874;28;20363;-32
2023/10/19 02:24:15;;;;;;;1.00;0.90;;;;;;;;;;4975872;28;20034;-34
2023/10/19 02:26:43;;;;;;;1.90;1.00;;;;;;;;;;4976049;28;20100;-32
2023/10/19 02:29:09;;;;;;;2.92;0.90;;;;;;;;;;4976033;28;20045;-32
2023/10/19 02:31:40;;;;;;;1.23;1.13;;;;;;;;;;4976031;28;20185;-32
2023/10/19 02:34:10;;;;;;;3.23;1.13;;;;;;;;;;4975762;28;20062;-31
2023/10/19 02:36:37;;;;;;;3.42;0.75;;;;;;;;;;4976041;28;20045;-31
2023/10/19 02:39:10;;;;;;;1.42;1.02;;;;;;;;;;4975982;28;20469;-31
2023/10/19 02:41:37;;;;;;;1.25;0.98;;;;;;;;;;4975539;28;20054;-32
2023/10/19 02:46:34;;;;;;;2.33;1.00;;;;;;;;;;4975682;28;20179;-32
2023/10/19 02:49:11;;;;;;;1.92;1.45;;;;;;;;;;4976171;28;20098;-33
2023/10/19 02:51:38;;;;;;;0.85;0.80;;;;;;;;;;4976217;28;20359;-33
2023/10/19 02:54:08;;;;;;;1.27;1.10;;;;;;;;;;4975462;28;20439;-31
2023/10/19 02:56:35;;;;;;;4.37;1.30;;;;;;;;;;4975843;28;20417;-32
2023/10/19 02:59:03;;;;;;;0.93;0.80;;;;;;;;;;4975792;28;20262;-30
2023/10/19 03:01:34;;;;;;;2.50;1.35;;;;;;;;;;4975483;28;20030;-32
2023/10/19 03:04:01;;;;;;;1.20;1.10;;;;;;;;;;4975291;28;20118;-32
2023/10/19 03:06:34;;;;;;;1.98;1.63;;;;;;;;;;4975485;28;20027;-32
2023/10/19 03:09:13;;;;;;;1.20;1.10;;;;;;;;;;4975748;28;20342;-32
2023/10/19 03:11:43;;;;;;;2.53;1.10;;;;;;;;;;4978709;28;20066;-32
2023/10/19 03:14:11;;;;;;;1.93;1.07;;;;;;;;;;4979104;28;20092;-32
2023/10/19 03:16:37;;;;;;;4.20;1.45;;;;;;;;;;4979186;28;20285;-32
2023/10/19 03:19:07;;;;;;;1.10;0.90;;;;;;;;;;4979305;28;20034;-32
2023/10/19 03:21:41;;;;;;;1.35;1.05;;;;;;;;;;4979265;28;20362;-32
2023/10/19 03:24:12;;;;;;;1.73;0.95;;;;;;;;;;4979167;28;20512;-33
2023/10/19 03:26:43;;;;;;;1.27;1.17;;;;;;;;;;4978959;28;20476;-32
2023/10/19 03:29:15;;;;;;;2.95;0.98;;;;;;;;;;4978967;28;20031;-32
2023/10/19 03:31:45;;;;;;;1.85;0.80;;;;;;;;;;4979152;28;20034;-32
2023/10/19 03:34:23;;;;;;;1.38;0.90;;;;;;;;;;4978634;28;20488;-30
2023/10/19 03:36:54;;;;;;;1.23;0.90;;;;;;;;;;4978774;28;20035;-32
2023/10/19 03:39:21;;;;;;;1.75;1.15;;;;;;;;;;4979016;28;20374;-30
2023/10/19 03:41:49;;;;;;;1.17;1.10;;;;;;;;;;4978609;28;20050;-30
2023/10/19 03:44:24;;;;;;;0.80;0.80;;;;;;;;;;4978545;28;20027;-30
2023/10/19 03:46:53;;;;;;;2.35;0.80;;;;;;;;;;4978529;28;20066;-31
2023/10/19 03:49:23;;;;;;;3.25;0.90;;;;;;;;;;4978829;28;20398;-30
2023/10/19 03:51:59;;;;;;;0.98;0.77;;;;;;;;;;4978419;28;20113;-32
2023/10/19 03:54:29;;;;;;;1.85;0.80;;;;;;;;;;4978760;28;20106;-31
2023/10/19 03:56:57;;;;;;;1.23;1.15;;;;;;;;;;4978659;28;20034;-31
2023/10/19 03:59:29;;;;;;;1.20;0.93;;;;;;;;;;4978617;28;20402;-33
2023/10/19 04:01:55;;;;;;;4.40;0.80;;;;;;;;;;4978515;28;20062;-32
2023/10/19 04:04:22;;;;;;;1.08;0.98;;;;;;;;;;4978050;28;20050;-31
2023/10/19 04:06:49;;;;;;;1.45;0.82;;;;;;;;;;4978082;28;20019;-31
2023/10/19 04:09:18;;;;;;;1.60;1.20;;;;;;;;;;4978377;28;20406;-33
2023/10/19 04:11:48;;;;;;;0.95;0.90;;;;;;;;;;4978224;28;20109;-34
2023/10/19 04:14:18;;;;;;;1.40;0.90;;;;;;;;;;4978048;28;20051;-32
2023/10/19 04:16:44;;;;;;;2.88;1.70;;;;;;;;;;4978023;28;20413;-31
2023/10/19 04:19:11;;;;;;;1.67;0.90;;;;;;;;;;4977976;28;20355;-32
2023/10/19 04:21:43;;;;;;;1.02;0.93;;;;;;;;;;4976759;28;20142;-31
2023/10/19 04:24:10;;;;;;;1.38;1.02;;;;;;;;;;4978092;28;20092;-31
2023/10/19 04:26:39;;;;;;;2.42;0.95;;;;;;;;;;4977890;28;20027;-30
2023/10/19 04:29:17;;;;;;;0.90;0.80;;;;;;;;;;4977665;28;20053;-31
2023/10/19 04:31:59;;;;;;;0.50;0.50;;;;;;;;;;4977653;28;20042;-30
2023/10/19 04:34:25;;;;;;;1.92;1.05;;;;;;;;;;4977672;28;20065;-31
2023/10/19 04:36:52;;;;;;;0.80;0.80;;;;;;;;;;4977655;28;20358;-31
2023/10/19 04:39:21;;;;;;;1.17;0.90;;;;;;;;;;4977519;28;20031;-32
2023/10/19 04:41:49;;;;;;;2.90;1.20;;;;;;;;;;4977442;28;20027;-32
2023/10/19 04:44:15;;;;;;;1.73;1.23;;;;;;;;;;4977354;28;20352;-32
2023/10/19 04:46:42;;;;;;;2.15;1.30;;;;;;;;;;4977359;28;20105;-32
2023/10/19 04:49:08;;;;;;;0.95;0.75;;;;;;;;;;4977186;28;20030;-32
2023/10/19 04:51:38;;;;;;;3.60;0.90;;;;;;;;;;4977214;28;20042;-32
2023/10/19 04:54:05;;;;;;;0.77;0.70;;;;;;;;;;4977103;28;20062;-30
2023/10/19 04:56:32;;;;;;;1.00;0.90;;;;;;;;;;4977028;28;20062;-31
2023/10/19 04:58:58;;;;;;;2.42;0.90;;;;;;;;;;4977250;28;20027;-30
2023/10/19 05:01:24;;;;;;;1.13;0.70;;;;;;;;;;4976877;28;20026;-30
2023/10/19 05:03:50;;;;;;;1.30;0.90;;;;;;;;;;4976777;28;20076;-32
2023/10/19 05:06:17;;;;;;;1.10;1.00;;;;;;;;;;4977406;28;20031;-33
2023/10/19 05:08:43;;;;;;;3.78;1.17;;;;;;;;;;4976950;28;20019;-30
2023/10/19 05:11:09;;;;;;;4.22;0.98;;;;;;;;;;4977155;28;20102;-32
2023/10/19 05:13:36;;;;;;;8.25;1.00;;;;;;;;;;4976907;28;20363;-32
2023/10/19 05:16:02;;;;;;;1.50;0.90;;;;;;;;;;4977047;28;20035;-31
2023/10/19 05:18:28;;;;;;;5.72;2.30;;;;;;;;;;4976856;28;20406;-32
2023/10/19 05:20:57;;;;;;;2.47;1.08;;;;;;;;;;4976781;28;20469;-32
2023/10/19 05:23:24;;;;;;;2.17;1.73;;;;;;;;;;4976984;28;20023;-31
2023/10/19 05:25:52;;;;;;;1.90;0.95;;;;;;;;;;4976711;28;20034;-32
2023/10/19 05:28:18;;;;;;;3.72;0.95;;;;;;;;;;4977020;28;20413;-31
2023/10/19 05:30:45;;;;;;;0.75;0.70;;;;;;;;;;4976893;28;20530;-32
2023/10/19 05:33:11;;;;;;;4.38;1.02;;;;;;;;;;4976233;28;20034;-31
2023/10/19 05:35:40;;;;;;;2.80;1.20;;;;;;;;;;4976757;28;20089;-32
2023/10/19 05:38:07;;;;;;;3.08;0.63;;;;;;;;;;4976819;28;20366;-33
2023/10/19 05:40:33;;;;;;;1.35;1.25;;;;;;;;;;4976708;28;20125;-32
2023/10/19 05:43:01;;;;;;;1.80;1.00;;;;;;;;;;4976346;28;20078;-32
2023/10/19 05:45:28;;;;;;;1.23;0.80;;;;;;;;;;4976292;28;20058;-32
2023/10/19 05:47:56;;;;;;;2.42;1.05;;;;;;;;;;4976508;28;20110;-32
2023/10/19 05:50:23;;;;;;;1.55;0.98;;;;;;;;;;4976261;28;20093;-31
2023/10/19 05:52:49;;;;;;;2.70;1.30;;;;;;;;;;4976121;28;20027;-30
2023/10/19 05:55:16;;;;;;;1.38;0.90;;;;;;;;;;4976263;28;20037;-33
2023/10/19 05:57:42;;;;;;;1.98;1.17;;;;;;;;;;4976119;28;20033;-30
2023/10/19 06:03:16;;;;;;;2.15;1.15;;;;;;;;;;5358150;23;20058;-23
2023/10/19 06:05:43;;;;;;;0.98;0.80;;;;;;;;;;4996077;28;20023;-23
2023/10/19 06:08:09;;;;;;;1.10;0.88;;;;;;;;;;4995377;28;20026;-26
2023/10/19 06:10:39;;;;;;;1.27;1.15;;;;;;;;;;4995360;28;20045;-23
2023/10/19 06:13:09;;;;;;;2.00;1.02;;;;;;;;;;4995550;28;20095;-23
2023/10/19 06:15:35;;;;;;;1.38;0.98;;;;;;;;;;4995526;28;20026;-24
2023/10/19 06:18:03;;;;;;;0.75;0.75;;;;;;;;;;4995334;28;20357;-22
2023/10/19 06:20:29;;;;;;;1.38;1.27;;;;;;;;;;4995479;28;20521;-23
2023/10/19 06:23:05;;;;;;;4.32;1.17;;;;;;;;;;4995085;28;20080;-24
2023/10/19 06:25:32;;;;;;;1.10;0.85;;;;;;;;;;4995494;28;20046;-24
2023/10/19 06:27:59;;;;;;;0.90;0.80;;;;;;;;;;4995127;28;20042;-24
2023/10/19 06:30:26;;;;;;;1.70;0.90;;;;;;;;;;4995388;28;20022;-22
2023/10/19 06:32:53;;;;;;;4.30;1.05;;;;;;;;;;4995031;28;20420;-22
2023/10/19 06:35:20;;;;;;;2.80;0.90;;;;;;;;;;4977899;28;20030;-23
2023/10/19 06:37:47;;;;;;;0.85;0.82;;;;;;;;;;4995637;28;20030;-22
2023/10/19 06:40:17;;;;;;;1.50;1.23;;;;;;;;;;4977966;28;20037;-23
2023/10/19 06:42:46;;;;;;;3.20;1.02;;;;;;;;;;4995220;28;20023;-22
2023/10/19 06:45:13;;;;;;;1.13;0.73;;;;;;;;;;4996427;28;20023;-23
2023/10/19 06:47:49;;;;;;;1.42;0.70;;;;;;;;;;4999032;28;20041;-25
2023/10/19 06:50:17;;;;;;;1.98;1.10;;;;;;;;;;4999300;28;20045;-24
2023/10/19 06:52:44;;;;;;;1.17;0.90;;;;;;;;;;4998780;28;20034;-22
2023/10/19 06:55:13;;;;;;;2.05;1.17;;;;;;;;;;4998946;28;20045;-24
2023/10/19 06:57:43;;;;;;;1.70;0.80;;;;;;;;;;4999213;28;20030;-24
2023/10/19 07:00:19;;;;;;;1.02;0.88;;;;;;;;;;4998718;28;20026;-22
2023/10/19 07:02:46;;;;;;;2.55;1.02;;;;;;;;;;4998835;28;20053;-22
2023/10/19 07:05:13;;;;;;;1.23;0.82;;;;;;;;;;4981511;28;20468;-22
2023/10/19 07:07:43;;;;;;;1.40;1.15;;;;;;;;;;4998611;28;20042;-23
2023/10/19 07:10:12;;;;;;;7.32;1.05;;;;;;;;;;4998571;28;20528;-25
2023/10/19 07:12:38;;;;;;;4.65;1.05;;;;;;;;;;4998638;28;20026;-24
2023/10/19 07:15:07;;;;;;;3.67;1.23;;;;;;;;;;4998607;28;20357;-23
2023/10/19 07:17:34;;;;;;;1.55;0.90;;;;;;;;;;4998570;28;20034;-23
2023/10/19 07:20:00;;;;;;;4.88;1.77;;;;;;;;;;4998471;28;20408;-22
2023/10/19 07:22:27;;;;;;;1.40;0.85;;;;;;;;;;4998659;28;20375;-22
2023/10/19 07:24:54;;;;;;;4.45;1.48;;;;;;;;;;4998700;28;20094;-24
2023/10/19 07:27:21;;;;;;;1.45;1.17;;;;;;;;;;4998252;28;20050;-22
2023/10/19 07:29:47;;;;;;;1.70;1.08;;;;;;;;;;4998579;28;20357;-23
2023/10/19 07:32:16;;;;;;;3.10;1.20;;;;;;;;;;4998396;28;20484;-24
2023/10/19 07:34:46;;;;;;;0.75;0.75;;;;;;;;;;4981134;28;20118;-24
2023/10/19 07:37:16;;;;;;;1.10;0.75;;;;;;;;;;4998203;28;20018;-24
2023/10/19 07:39:45;;;;;;;2.90;1.10;;;;;;;;;;4997974;28;20018;-24
2023/10/19 07:42:12;;;;;;;3.15;0.93;;;;;;;;;;4998267;28;20053;-23
2023/10/19 07:44:38;;;;;;;1.52;0.93;;;;;;;;;;4998061;28;20050;-24
2023/10/19 07:47:06;;;;;;;0.88;0.88;;;;;;;;;;4980915;28;20530;-23
2023/10/19 07:49:32;;;;;;;1.38;1.20;;;;;;;;;;4997969;28;20030;-24
2023/10/19 07:51:59;;;;;;;1.17;1.08;;;;;;;;;;4997900;28;20097;-23
2023/10/19 07:54:25;;;;;;;1.70;0.73;;;;;;;;;;4997884;28;20026;-23
2023/10/19 07:56:53;;;;;;;2.95;1.40;;;;;;;;;;4997725;28;20030;-22
2023/10/19 07:59:19;;;;;;;1.23;0.90;;;;;;;;;;4998204;28;20459;-24
2023/10/19 08:01:45;;;;;;;1.58;1.10;;;;;;;;;;4997597;28;20034;-23
2023/10/19 08:04:12;;;;;;;1.13;0.98;;;;;;;;;;4997589;28;20046;-25
2023/10/19 08:06:38;;;;;;;6.82;1.13;;;;;;;;;;4997509;28;20027;-24
2023/10/19 08:09:04;;;;;;;3.22;1.20;;;;;;;;;;4997564;28;20023;-24
2023/10/19 08:11:31;;;;;;;1.75;1.20;;;;;;;;;;4997499;28;20101;-24
2023/10/19 08:13:57;;;;;;;3.72;1.23;;;;;;;;;;4997424;28;20030;-23
2023/10/19 08:16:27;;;;;;;1.75;0.95;;;;;;;;;;4997322;28;20034;-24
2023/10/19 08:18:54;;;;;;;2.25;0.95;;;;;;;;;;4997601;28;20053;-23
2023/10/19 08:21:21;;;;;;;1.98;0.80;;;;;;;;;;4997395;28;20037;-24
2023/10/19 08:23:47;;;;;;;3.55;0.80;;;;;;;;;;4997374;28;20018;-23
2023/10/19 08:26:14;;;;;;;1.13;1.02;;;;;;;;;;4997332;28;20365;-23
2023/10/19 08:28:41;;;;;;;6.95;1.65;;;;;;;;;;4979874;28;20046;-25
2023/10/19 08:31:10;;;;;;;2.20;1.00;;;;;;;;;;4979915;28;20046;-24
2023/10/19 08:33:38;;;;;;;3.38;0.85;;;;;;;;;;4997139;28;20029;-25
2023/10/19 08:36:05;;;;;;;4.18;1.25;;;;;;;;;;4996945;28;20030;-22
2023/10/19 08:38:32;;;;;;;2.42;1.60;;;;;;;;;;4996873;28;20409;-23
2023/10/19 08:40:59;;;;;;;3.08;1.00;;;;;;;;;;4996967;28;20033;-24
2023/10/19 08:43:28;;;;;;;4.10;1.00;;;;;;;;;;4996825;28;20361;-23
2023/10/19 08:45:55;;;;;;;3.13;1.02;;;;;;;;;;4996962;28;20037;-24
2023/10/19 08:48:22;;;;;;;5.28;2.53;;;;;;;;;;4979730;28;20417;-25
2023/10/19 08:50:49;;;;;;;2.00;1.00;;;;;;;;;;4996775;28;20480;-24
2023/10/19 08:53:17;;;;;;;3.70;1.65;;;;;;;;;;4996747;28;20038;-24
2023/10/19 08:55:43;;;;;;;3.17;1.25;;;;;;;;;;4996704;28;20026;-24
2023/10/19 08:58:10;;;;;;;2.90;1.08;;;;;;;;;;4997047;28;20034;-23
2023/10/19 09:00:46;;;;;;;3.72;1.08;;;;;;;;;;4996674;28;20331;-22
2023/10/19 09:03:13;;;;;;;4.95;1.30;;;;;;;;;;4996423;28;20061;-24
2023/10/19 09:05:40;;;;;;;1.08;0.82;;;;;;;;;;4997177;28;20147;-23
2023/10/19 09:08:07;;;;;;;7.63;0.95;;;;;;;;;;4996199;28;20030;-24
2023/10/19 09:10:36;;;;;;;2.30;1.38;;;;;;;;;;4979337;28;20030;-23
2023/10/19 09:13:09;;;;;;;0.70;0.70;;;;;;;;;;4996516;28;20447;-23
2023/10/19 09:15:36;;;;;;;0.93;0.85;;;;;;;;;;4996757;28;20030;-25
2023/10/19 09:18:14;;;;;;;3.33;1.30;;;;;;;;;;4979976;28;20092;-24
2023/10/19 09:20:42;;;;;;;2.53;0.80;;;;;;;;;;4996168;28;20049;-23
2023/10/19 09:23:08;;;;;;;1.80;1.05;;;;;;;;;;4996302;28;20460;-24
2023/10/19 09:25:39;;;;;;;2.90;0.90;;;;;;;;;;4996034;28;20026;-24
2023/10/19 09:28:06;;;;;;;3.78;1.00;;;;;;;;;;4996100;28;20042;-23
2023/10/19 09:30:32;;;;;;;1.63;1.02;;;;;;;;;;4978507;28;20468;-24
2023/10/19 09:32:59;;;;;;;2.42;1.30;;;;;;;;;;4995727;28;20080;-24
2023/10/19 09:35:31;;;;;;;2.40;1.20;;;;;;;;;;4995737;28;20353;-24
2023/10/19 09:37:57;;;;;;;3.22;1.63;;;;;;;;;;4978747;28;20477;-24
2023/10/19 09:40:24;;;;;;;1.33;1.00;;;;;;;;;;4995600;28;20030;-22
2023/10/19 09:42:54;;;;;;;3.00;1.08;;;;;;;;;;4978526;28;20040;-20
2023/10/19 09:45:24;;;;;;;2.15;1.50;;;;;;;;;;4996125;28;20042;-22
2023/10/19 09:47:51;;;;;;;2.95;1.23;;;;;;;;;;4995576;28;20022;-21
2023/10/19 09:50:17;;;;;;;5.88;1.35;;;;;;;;;;4995659;28;20042;-18
2023/10/19 09:52:44;;;;;;;1.67;0.90;;;;;;;;;;4995896;28;20037;-20
2023/10/19 09:55:22;;;;;;;2.25;1.35;;;;;;;;;;4995769;28;20022;-20
2023/10/19 09:58:15;;;;;;;1.92;1.00;;;;;;;;;;4995660;28;20026;-20
2023/10/19 10:00:45;;;;;;;2.10;1.20;;;;;;;;;;4991991;28;20124;-20
2023/10/19 10:03:29;;;;;;;2.85;1.25;;;;;;;;;;4995165;28;20074;-23
2023/10/19 10:05:56;;;;;;;4.28;1.10;;;;;;;;;;4978157;28;20026;-18
2023/10/19 10:08:26;;;;;;;7.32;1.20;;;;;;;;;;4978038;28;20105;-17
2023/10/19 10:10:52;;;;;;;4.03;1.27;;;;;;;;;;4995087;28;20042;-20
2023/10/19 10:13:26;;;;;;;2.38;1.05;;;;;;;;;;4995193;28;20365;-20
2023/10/19 10:15:57;;;;;;;4.30;1.00;;;;;;;;;;4995293;28;20061;-33
2023/10/19 10:18:27;;;;;;;3.85;1.20;;;;;;;;;;4995710;28;20045;-19
2023/10/19 10:21:13;;;;;;;1.10;0.90;;;;;;;;;;4994162;28;20046;-22
2023/10/19 10:23:43;;;;;;;1.95;1.35;;;;;;;;;;4995197;28;20023;-21
2023/10/19 10:26:13;;;;;;;2.10;0.70;;;;;;;;;;4977906;28;20030;-18
2023/10/19 10:28:40;;;;;;;7.22;1.13;;;;;;;;;;4994887;28;20133;-21
2023/10/19 10:31:13;;;;;;;1.58;1.33;;;;;;;;;;4994944;28;20085;-21
2023/10/19 10:33:39;;;;;;;2.80;1.00;;;;;;;;;;4995235;28;20211;-21
2023/10/19 10:36:06;;;;;;;4.10;1.33;;;;;;;;;;4995325;28;20050;-19
2023/10/19 10:38:35;;;;;;;3.42;1.27;;;;;;;;;;4977982;28;20030;-18
2023/10/19 10:41:02;;;;;;;5.65;2.13;;;;;;;;;;4994924;28;20027;-18
2023/10/19 10:43:28;;;;;;;2.78;1.30;;;;;;;;;;4994716;28;20026;-18
2023/10/19 10:46:10;;;;;;;5.80;1.30;;;;;;;;;;4977656;28;20037;-17
2023/10/19 10:48:41;;;;;;;1.83;1.00;;;;;;;;;;4994887;28;20026;-18
2023/10/19 10:51:21;;;;;;;3.80;1.10;;;;;;;;;;4977611;28;20023;-18
2023/10/19 10:53:54;;;;;;;3.70;1.20;;;;;;;;;;4994526;28;20051;-20
2023/10/19 10:56:24;;;;;;;2.42;0.90;;;;;;;;;;4994504;28;20033;-18
2023/10/19 10:58:50;;;;;;;5.55;1.48;;;;;;;;;;4994533;28;20034;-20
2023/10/19 11:01:28;;;;;;;2.63;0.88;;;;;;;;;;4995074;28;20062;-20
2023/10/19 11:04:06;;;;;;;2.70;1.17;;;;;;;;;;4994508;28;20042;-23
2023/10/19 11:06:32;;;;;;;3.55;1.50;;;;;;;;;;4977451;28;20100;-19
2023/10/19 11:08:58;;;;;;;4.22;1.02;;;;;;;;;;4994831;28;20045;-18
2023/10/19 11:11:25;;;;;;;4.00;1.45;;;;;;;;;;4994547;28;20438;-18
2023/10/19 11:13:51;;;;;;;2.70;1.02;;;;;;;;;;4977698;28;20185;-20
2023/10/19 11:16:23;;;;;;;3.38;0.90;;;;;;;;;;4994842;28;20458;-19
2023/10/19 11:18:50;;;;;;;3.08;0.90;;;;;;;;;;4994525;28;20026;-21
2023/10/19 11:21:18;;;;;;;4.45;1.20;;;;;;;;;;4977338;28;20109;-19
2023/10/19 11:23:46;;;;;;;6.57;1.10;;;;;;;;;;4994592;28;20425;-22
2023/10/19 11:26:13;;;;;;;4.35;1.10;;;;;;;;;;4995522;28;20030;-24
2023/10/19 11:28:43;;;;;;;2.53;0.88;;;;;;;;;;4994432;28;20034;-22
2023/10/19 11:31:13;;;;;;;3.17;1.10;;;;;;;;;;4995557;28;20061;-23
2023/10/19 11:33:39;;;;;;;4.60;1.40;;;;;;;;;;4998023;28;20117;-21
2023/10/19 11:36:06;;;;;;;12.85;1.75;;;;;;;;;;4998361;28;20080;-21
2023/10/19 11:38:32;;;;;;;3.05;1.20;;;;;;;;;;4997912;28;20062;-19
2023/10/19 11:40:58;;;;;;;1.90;1.13;;;;;;;;;;4997755;28;20069;-18
2023/10/19 11:43:24;;;;;;;3.85;1.00;;;;;;;;;;4997782;28;20022;-17
2023/10/19 11:45:51;;;;;;;1.38;0.90;;;;;;;;;;4998251;28;20433;-16
2023/10/19 11:48:17;;;;;;;1.35;1.00;;;;;;;;;;4997667;28;20035;-19
2023/10/19 11:50:43;;;;;;;4.57;1.20;;;;;;;;;;4997971;28;20361;-16
2023/10/19 11:53:10;;;;;;;6.63;1.38;;;;;;;;;;4997700;28;20364;-18
2023/10/19 11:55:36;;;;;;;3.35;1.15;;;;;;;;;;4997591;28;20521;-18
2023/10/19 11:58:02;;;;;;;2.95;1.08;;;;;;;;;;4997889;28;20023;-20
2023/10/19 12:00:37;;;;;;;3.50;1.17;;;;;;;;;;4980425;28;20065;-21
2023/10/19 12:03:04;;;;;;;8.50;1.60;;;;;;;;;;4997454;28;20057;-19
2023/10/19 12:05:30;;;;;;;1.55;1.20;;;;;;;;;;4980304;28;20465;-19
2023/10/19 12:07:56;;;;;;;10.95;2.22;;;;;;;;;;4997425;28;20018;-20
2023/10/19 12:10:43;;;;;;;7.47;1.23;;;;;;;;;;4997379;28;20027;-18
2023/10/19 12:13:09;;;;;;;4.57;1.40;;;;;;;;;;4996905;28;20034;-20
2023/10/19 12:15:35;;;;;;;6.70;1.38;;;;;;;;;;4997523;28;20034;-18
2023/10/19 12:18:03;;;;;;;4.95;1.50;;;;;;;;;;4997474;28;20026;-20
2023/10/19 12:20:32;;;;;;;6.43;1.20;;;;;;;;;;4997729;28;20057;-21
2023/10/19 12:22:58;;;;;;;6.40;1.45;;;;;;;;;;4996959;28;20365;-17
2023/10/19 12:25:31;;;;;;;4.70;1.35;;;;;;;;;;4996898;28;20113;-19
2023/10/19 12:27:59;;;;;;;1.15;1.00;;;;;;;;;;4979681;28;20412;-17
2023/10/19 12:30:26;;;;;;;2.85;1.27;;;;;;;;;;4996765;28;20430;-20
2023/10/19 12:32:55;;;;;;;4.82;1.10;;;;;;;;;;4996846;28;20034;-19
2023/10/19 12:35:25;;;;;;;1.83;1.00;;;;;;;;;;4996781;28;20056;-23
2023/10/19 12:37:51;;;;;;;2.03;1.43;;;;;;;;;;4997065;28;20026;-23
2023/10/19 12:40:28;;;;;;;8.75;1.33;;;;;;;;;;4996913;28;20041;-27
2023/10/19 12:42:54;;;;;;;6.00;1.30;;;;;;;;;;4995877;28;20027;-22
2023/10/19 12:45:23;;;;;;;4.70;1.20;;;;;;;;;;4996718;28;20022;-18
2023/10/19 12:47:51;;;;;;;7.35;1.13;;;;;;;;;;4996628;28;20030;-20
2023/10/19 12:50:17;;;;;;;4.15;1.10;;;;;;;;;;4997048;28;20031;-19
2023/10/19 12:52:45;;;;;;;4.53;2.10;;;;;;;;;;4996672;28;20037;-20
2023/10/19 12:55:11;;;;;;;1.63;1.08;;;;;;;;;;4996680;28;20097;-23
2023/10/19 12:57:37;;;;;;;4.05;1.10;;;;;;;;;;4979570;28;20408;-18
2023/10/19 13:00:23;;;;;;;1.63;0.90;;;;;;;;;;4996608;28;20186;-20
2023/10/19 13:02:50;;;;;;;4.18;1.63;;;;;;;;;;4996321;28;20122;-21
2023/10/19 13:05:18;;;;;;;1.25;1.02;;;;;;;;;;4996748;28;20382;-20
2023/10/19 13:07:45;;;;;;;2.55;1.02;;;;;;;;;;4996381;28;20088;-21
2023/10/19 13:10:11;;;;;;;5.75;1.55;;;;;;;;;;4996172;28;20118;-21
2023/10/19 13:12:37;;;;;;;2.13;1.33;;;;;;;;;;4996003;28;20050;-22
2023/10/19 13:15:11;;;;;;;3.90;1.05;;;;;;;;;;4996386;28;20310;-18
2023/10/19 13:17:37;;;;;;;8.07;2.05;;;;;;;;;;4996282;28;20436;-18
2023/10/19 13:20:15;;;;;;;2.78;1.30;;;;;;;;;;4995966;28;20026;-18
2023/10/19 13:22:42;;;;;;;6.55;1.50;;;;;;;;;;4996015;28;20026;-16
2023/10/19 13:25:16;;;;;;;3.78;1.10;;;;;;;;;;4995882;28;20019;-17
2023/10/19 13:27:45;;;;;;;4.78;1.17;;;;;;;;;;4995729;28;20458;-21
2023/10/19 13:30:14;;;;;;;2.97;1.85;;;;;;;;;;4978554;28;20042;-18
2023/10/19 13:32:43;;;;;;;8.57;1.30;;;;;;;;;;4995581;28;20084;-20
2023/10/19 13:35:09;;;;;;;4.50;1.35;;;;;;;;;;4979109;28;20030;-21
2023/10/19 13:37:36;;;;;;;3.70;2.05;;;;;;;;;;4995977;28;20460;-20
2023/10/19 13:40:06;;;;;;;5.50;3.08;;;;;;;;;;4995891;28;20348;-20
2023/10/19 13:42:34;;;;;;;16.13;2.20;;;;;;;;;;4996086;28;20098;-20
2023/10/19 13:45:00;;;;;;;9.32;1.15;;;;;;;;;;4995879;28;20453;-20
2023/10/19 13:47:26;;;;;;;4.72;1.42;;;;;;;;;;4995658;28;20028;-21
2023/10/19 13:49:53;;;;;;;5.25;1.00;;;;;;;;;;4996026;28;20049;-19
2023/10/19 13:52:19;;;;;;;6.25;1.40;;;;;;;;;;4996155;28;20400;-19
2023/10/19 13:54:46;;;;;;;3.97;1.45;;;;;;;;;;4995328;28;20045;-21
2023/10/19 13:57:12;;;;;;;6.18;1.48;;;;;;;;;;4995420;28;20084;-18
2023/10/19 13:59:38;;;;;;;4.10;1.20;;;;;;;;;;4995364;28;20015;-20
2023/10/19 14:02:05;;;;;;;1.98;1.50;;;;;;;;;;4995180;28;20365;-21
2023/10/19 14:04:31;;;;;;;8.90;1.40;;;;;;;;;;4994979;28;20073;-18
2023/10/19 14:06:57;;;;;;;3.78;1.73;;;;;;;;;;4995104;28;20029;-20
2023/10/19 14:09:26;;;;;;;3.33;1.48;;;;;;;;;;4995009;28;20517;-20
2023/10/19 14:11:53;;;;;;;3.00;1.25;;;;;;;;;;4995168;28;20032;-17
2023/10/19 14:14:19;;;;;;;6.88;1.30;;;;;;;;;;4995278;28;20330;-17
2023/10/19 14:16:45;;;;;;;7.13;1.10;;;;;;;;;;4995117;28;20485;-18
2023/10/19 14:19:12;;;;;;;5.20;1.30;;;;;;;;;;4994768;28;20049;-19
2023/10/19 14:21:40;;;;;;;4.03;1.20;;;;;;;;;;4994816;28;20360;-22
2023/10/19 14:24:08;;;;;;;3.08;1.30;;;;;;;;;;4995102;28;20462;-17
2023/10/19 14:26:34;;;;;;;2.40;1.25;;;;;;;;;;4995329;28;20353;-20
2023/10/19 14:29:01;;;;;;;2.20;1.20;;;;;;;;;;4995221;28;20424;-17
2023/10/19 14:31:27;;;;;;;6.90;1.40;;;;;;;;;;4977973;28;20531;-17
2023/10/19 14:33:53;;;;;;;4.05;1.20;;;;;;;;;;4994766;28;20037;-18
2023/10/19 14:36:20;;;;;;;2.05;1.08;;;;;;;;;;4995123;28;20034;-17
2023/10/19 14:38:46;;;;;;;3.75;1.20;;;;;;;;;;4995027;28;20397;-18
2023/10/19 14:41:12;;;;;;;2.53;1.52;;;;;;;;;;4994716;28;20032;-23
2023/10/19 14:43:38;;;;;;;6.07;1.40;;;;;;;;;;4994579;28;20023;-19
2023/10/19 14:46:08;;;;;;;9.15;1.40;;;;;;;;;;4994619;28;20084;-19
2023/10/19 14:48:36;;;;;;;3.03;1.00;;;;;;;;;;4994699;28;20050;-21
2023/10/19 14:51:02;;;;;;;1.98;1.30;;;;;;;;;;4995019;28;20219;-19
2023/10/19 14:53:28;;;;;;;4.75;1.30;;;;;;;;;;4977570;28;20031;-19
2023/10/19 14:55:57;;;;;;;3.90;1.20;;;;;;;;;;4994543;28;20417;-23
2023/10/19 14:58:25;;;;;;;5.78;1.13;;;;;;;;;;4994782;28;20057;-22
2023/10/19 15:00:54;;;;;;;3.72;1.40;;;;;;;;;;4994727;28;20033;-20
2023/10/19 15:03:23;;;;;;;6.53;1.40;;;;;;;;;;4977779;28;20052;-20
2023/10/19 15:05:57;;;;;;;2.15;1.08;;;;;;;;;;4994920;28;20085;-20
2023/10/19 15:08:26;;;;;;;3.65;1.58;;;;;;;;;;4998616;28;20030;-21
2023/10/19 15:10:54;;;;;;;4.38;1.50;;;;;;;;;;4981615;28;20040;-23
2023/10/19 15:13:20;;;;;;;4.22;1.45;;;;;;;;;;4998290;28;20026;-19